Impacts TAF Board
For situational awareness. Not to be used for flight planning purposes.
IDs:

KDFW - Dallas-Ft Worth Intl, TX, US

Issued at 1731 UTC 08 Feb 2023
Updated at 1951 UTC 08 Feb 2023
Potential Impact None Slight Moderate High
Time1920Z 08/20Z 08/21Z 08/22Z 08/23Z 09/00Z 09/01Z 09/02Z 09/03Z 09/04Z 09/05Z 09/06Z 09/07Z 09/08Z>>
Type OBS PRVL PRVL PRVL PRVL PRVL PRVL PRVL PRVL PRVL PRVL PRVL PRVL PRVL
VIS 10 6 6 >6 >6 >6 >6 >6 >6 >6 >6 >6 >6 >6
CIG 10 6 6 15 15 15 35 35 35 35 35 35 -- --
Cover OVC OVC OVC BKN BKN BKN BKN BKN BKN BKN BKN BKN SKC SKC
FltCat MVFR IFR IFR MVFR MVFR MVFR VFR VFR VFR VFR VFR VFR VFR VFR
WX -- -SHRA BR -SHRA BR VCSH VCSH VCSH -- -- -- -- -- -- -- --
WDir 290 300 300 290 290 290 290 290 290 290 290 290 220 220
WSpd 16 15 15 15 15 15 12 12 12 12 12 12 5 5
WGst 22 -- -- -- -- -- -- -- -- -- -- -- -- --
WSHgt -- -- -- -- -- -- -- -- -- -- -- -- -- --
WSDir -- -- -- -- -- -- -- -- -- -- -- -- -- --
WSSpd -- -- -- -- -- -- -- -- -- -- -- -- -- --
R13L/31
XWnd -7 -4 -4 -6 -6 -6 -5 -5 -5 -5 -5 -5 -5 -5
XGst -9 -- -- -- -- -- -- -- -- -- -- -- -- --
HWnd -15 -14 -14 -14 -14 -14 -11 -11 -11 -11 -11 -11 0 0
HGst -20 -- -- -- -- -- -- -- -- -- -- -- -- --
R13R/31
XWnd -8 -5 -5 -7 -7 -7 -6 -6 -6 -6 -6 -6 -5 -5
XGst -11 -- -- -- -- -- -- -- -- -- -- -- -- --
HWnd -14 -14 -14 -13 -13 -13 -10 -10 -10 -10 -10 -10 1 1
HGst -19 -- -- -- -- -- -- -- -- -- -- -- -- --
R17/35
XWnd -15 -13 -13 -14 -14 -14 -11 -11 -11 -11 -11 -11 -3 -3
XGst -21 -- -- -- -- -- -- -- -- -- -- -- -- --
HWnd -5 -8 -8 -5 -5 -5 -4 -4 -4 -4 -4 -4 4 4
HGst -8 -- -- -- -- -- -- -- -- -- -- -- -- --
R18/36
XWnd -15 -13 -13 -14 -14 -14 -11 -11 -11 -11 -11 -11 -3 -3
XGst -21 -- -- -- -- -- -- -- -- -- -- -- -- --
HWnd -5 -8 -8 -5 -5 -5 -4 -4 -4 -4 -4 -4 4 4
HGst -8 -- -- -- -- -- -- -- -- -- -- -- -- --

NOTE: LAMP data beyond the time of the TAF data is denoted as LAMP in Type and colored magenta.

Raw TAF
KDFW 081731Z 0818/0924 30015KT 6SM SHRA BR VCTS OVC008CB
  FM081900 30015KT 6SM -SHRA BR OVC006
  FM082200 29015KT P6SM VCSH BKN015
  FM090100 29012KT P6SM BKN035
  FM090700 22005KT P6SM SKC
  FM091900 30010KT P6SM SCT250


Raw METAR
KDFW 081920Z 29016G22KT 10SM BKN010 OVC014 08/06 A2994 RMK AO2 RAE01 PRESFR P0000 T00780056 $
KDFW 081853Z 27013KT 10SM -RA BKN009 OVC013 08/06 A2999 RMK AO2 SLP152 P0006 T00780061 $
KDFW 081829Z 29010KT 6SM -RA BR BKN009 OVC032 07/06 A2999 RMK AO2 LTG DSNT S P0006 T00720061 $
KDFW 081802Z 26011KT 6SM RA BR BKN010 BKN022 OVC033 07/06 A3002 RMK AO2 P0001 T00720056 $
KDFW 081753Z 30015G23KT 5SM -RA BR SCT008 BKN022 OVC075 07/06 A2998 RMK AO2 RAE20B29 SLP151 P0002 60029 T00720056 10083 20072 50001 $
KDFW 081737Z 31008KT 10SM -RA SCT010 OVC022 08/06 A3000 RMK AO2 LTG DSNT W AND NW RAE20B29 P0001 T00780061 $
KDFW 081721Z 30013G20KT 10SM BKN010 OVC020 08/06 A3002 RMK AO2 LTG DSNT SW AND W RAE20 PRESRR P0001 T00780056 $
KDFW 081703Z 30015KT 10SM -RA OVC009 08/06 A2999 RMK AO2 LTG DSNT SW AND W P0000 T00780061 $
KDFW 081653Z 31015KT 7SM -RA OVC010 08/06 A2999 RMK AO2 LTG DSNT NE AND E AND W PRESFR SLP152 TS MOVD NE CB DSNT NE MOV NE P0006 T00780061 $
KDFW 081642Z 29014KT 5SM -RA BR OVC010 08/06 A3001 RMK AO2 LTG DSNT N-E TS MOVD NE CB DSNT NE-E MOV NE P0006 T00780061 $
KDFW 081639Z 29015KT 5SM VCTS -RA BR OVC008 08/06 A3001 RMK AO2 LTG DSNT N-E TS MOVD NE CB DSNT NE-E MOV NE P0006 T00830061 $

METAR Board
Radar Display
Forecast Discussion

For situational awareness. Not to be used for flight planning purposes.